createdAt,value
2022-10-25T00:00:58.972Z,99672.25
2022-10-25T00:03:25.708Z,99676.28
2022-10-25T00:05:52.466Z,99664.56
2022-10-25T00:08:19.300Z,99661.47
2022-10-25T00:10:46.053Z,99659.28
2022-10-25T00:13:12.832Z,99647.69
2022-10-25T00:15:39.620Z,99643.25
2022-10-25T00:18:06.376Z,99644.34
2022-10-25T00:20:33.120Z,99635.28
2022-10-25T00:22:59.912Z,99632.63
2022-10-25T00:25:26.653Z,99637.06
2022-10-25T00:27:53.373Z,99634.50
2022-10-25T00:30:20.153Z,99632.81
2022-10-25T00:32:47.369Z,99631.22
2022-10-25T00:35:14.451Z,99629.53
2022-10-25T00:37:41.241Z,99632.13
2022-10-25T00:40:08.564Z,99628.81
2022-10-25T00:42:35.393Z,99624.47
2022-10-25T00:45:26.760Z,99632.34
2022-10-25T00:48:04.674Z,99625.47
2022-10-25T00:50:37.303Z,99628.28
2022-10-25T00:53:12.589Z,99626.66
2022-10-25T00:55:45.533Z,99632.97
2022-10-25T00:58:18.012Z,99622.69
2022-10-25T01:00:47.731Z,99621.44
2022-10-25T01:03:16.847Z,99612.22
2022-10-25T01:05:44.819Z,99613.47
2022-10-25T01:08:12.574Z,99601.53
2022-10-25T01:10:39.954Z,99599.44
2022-10-25T01:13:06.916Z,99597.47
2022-10-25T01:15:59.551Z,99597.22
2022-10-25T01:18:43.530Z,99596.19
2022-10-25T01:21:50.919Z,99596.84
2022-10-25T01:24:54.874Z,99593.16
2022-10-25T01:27:27.519Z,99595.47
2022-10-25T01:30:12.716Z,99592.94
2022-10-25T01:33:08.523Z,99587.72
2022-10-25T01:35:53.512Z,99583.56
2022-10-25T01:38:29.484Z,99587.31
2022-10-25T01:40:56.162Z,99589.16
2022-10-25T01:43:41.507Z,99589.06
2022-10-25T01:46:13.470Z,99593.53
2022-10-25T01:48:45.945Z,99592.66
2022-10-25T01:51:16.325Z,99595.03
2022-10-25T01:53:48.455Z,99596.59
2022-10-25T01:56:23.689Z,99603.47
2022-10-25T01:58:50.366Z,99602.44
2022-10-25T02:01:39.210Z,99601.69
2022-10-25T02:04:18.398Z,99601.88
2022-10-25T02:07:10.675Z,99599.03
2022-10-25T02:09:57.010Z,99591.22
2022-10-25T02:12:49.922Z,99587.72
2022-10-25T02:15:24.992Z,99593.09
2022-10-25T02:18:02.333Z,99600.81
2022-10-25T02:20:33.715Z,99597.91
2022-10-25T02:23:03.109Z,99602.72
2022-10-25T02:25:32.719Z,99591.63
2022-10-25T02:28:04.270Z,99609.81
2022-10-25T02:30:33.854Z,99601.00
2022-10-25T02:33:01.690Z,99609.59
2022-10-25T02:35:28.476Z,99600.47
2022-10-25T02:37:55.218Z,99593.19
2022-10-25T02:40:22.393Z,99586.06
2022-10-25T02:42:49.114Z,99599.16
2022-10-25T02:45:15.942Z,99593.00
2022-10-25T02:47:42.689Z,99596.16
2022-10-25T02:50:10.160Z,99599.56
2022-10-25T02:52:37.052Z,99596.78
2022-10-25T02:55:04.154Z,99592.16
2022-10-25T02:57:37.916Z,99584.06
2022-10-25T03:00:07.023Z,99589.22
2022-10-25T03:02:33.912Z,99590.69
2022-10-25T03:05:00.619Z,99599.28
2022-10-25T03:07:27.378Z,99595.59
2022-10-25T03:09:54.101Z,99597.41
2022-10-25T03:12:20.894Z,99587.56
2022-10-25T03:14:47.658Z,99592.88
2022-10-25T03:17:14.381Z,99593.63
2022-10-25T03:19:41.122Z,99594.22
2022-10-25T03:22:07.836Z,99586.06
2022-10-25T03:24:34.545Z,99582.56
2022-10-25T03:27:02.266Z,99580.97
2022-10-25T03:29:28.994Z,99580.59
2022-10-25T03:31:55.718Z,99580.53
2022-10-25T03:34:22.455Z,99573.28
2022-10-25T03:36:49.202Z,99573.22
2022-10-25T03:39:15.866Z,99576.72
2022-10-25T03:41:42.597Z,99563.28
2022-10-25T03:44:09.341Z,99563.38
2022-10-25T03:46:36.047Z,99558.16
2022-10-25T03:49:02.780Z,99560.72
2022-10-25T03:51:29.480Z,99564.38
2022-10-25T03:53:56.196Z,99566.09
2022-10-25T03:56:23.508Z,99565.09
2022-10-25T03:58:50.236Z,99566.78
2022-10-25T04:01:17.061Z,99573.75
2022-10-25T04:03:45.276Z,99578.19
2022-10-25T04:06:11.979Z,99563.91
2022-10-25T04:08:38.978Z,99570.94
2022-10-25T04:11:05.806Z,99557.66
2022-10-25T04:13:32.551Z,99558.56
2022-10-25T04:15:59.296Z,99555.09
2022-10-25T04:18:26.019Z,99549.94
2022-10-25T04:20:52.706Z,99544.97
2022-10-25T04:23:19.421Z,99542.78
2022-10-25T04:25:46.135Z,99546.06
2022-10-25T04:28:12.841Z,99544.22
2022-10-25T04:30:39.606Z,99546.78
2022-10-25T04:33:07.350Z,99537.91
2022-10-25T04:35:34.045Z,99544.88
2022-10-25T04:38:00.790Z,99545.69
2022-10-25T04:40:27.495Z,99547.38
2022-10-25T04:42:54.279Z,99558.69
2022-10-25T04:45:20.988Z,99556.53
2022-10-25T04:47:47.848Z,99552.50
2022-10-25T04:50:14.570Z,99551.03
2022-10-25T04:52:41.298Z,99547.91
2022-10-25T04:55:08.062Z,99544.59
2022-10-25T04:57:34.777Z,99541.97
2022-10-25T05:00:01.552Z,99551.69
2022-10-25T05:02:28.319Z,99547.38
2022-10-25T05:04:55.053Z,99552.69
2022-10-25T05:07:22.033Z,99546.47
2022-10-25T05:09:48.766Z,99547.31
2022-10-25T05:12:15.991Z,99543.69
2022-10-25T05:14:42.724Z,99540.09
2022-10-25T05:17:09.516Z,99547.91
2022-10-25T05:19:36.263Z,99544.19
2022-10-25T05:22:02.995Z,99544.00
2022-10-25T05:24:29.745Z,99547.34
2022-10-25T05:26:56.435Z,99556.06
2022-10-25T05:29:23.168Z,99550.56
2022-10-25T05:31:49.879Z,99562.69
2022-10-25T05:34:16.560Z,99560.69
2022-10-25T05:36:43.268Z,99557.03
2022-10-25T05:39:10.034Z,99561.53
2022-10-25T05:41:37.341Z,99559.47
2022-10-25T05:44:05.612Z,99556.53
2022-10-25T05:46:32.810Z,99556.25
2022-10-25T05:49:00.329Z,99552.53
2022-10-25T05:51:34.805Z,99551.63
2022-10-25T05:54:12.073Z,99546.06
2022-10-25T05:56:39.650Z,99541.34
2022-10-25T05:59:11.967Z,99548.34
2022-10-25T06:01:41.383Z,99540.97
2022-10-25T06:04:09.034Z,99544.66
2022-10-25T06:06:37.503Z,99547.28
2022-10-25T06:09:05.059Z,99553.47
2022-10-25T06:11:32.649Z,99546.13
2022-10-25T06:13:59.495Z,99541.25
2022-10-25T06:16:26.259Z,99536.53
2022-10-25T06:18:54.400Z,99546.63
2022-10-25T06:21:23.675Z,99548.31
2022-10-25T06:23:50.531Z,99545.63
2022-10-25T06:26:23.556Z,99542.34
2022-10-25T06:29:03.047Z,99548.84
2022-10-25T06:31:30.648Z,99544.47
2022-10-25T06:34:00.022Z,99531.34
2022-10-25T06:36:27.919Z,99533.78
2022-10-25T06:38:54.723Z,99526.75
2022-10-25T06:41:24.473Z,99529.13
2022-10-25T06:43:51.690Z,99523.03
2022-10-25T06:46:25.223Z,99527.81
2022-10-25T06:48:55.248Z,99524.84
2022-10-25T06:51:23.492Z,99531.25
2022-10-25T06:53:59.901Z,99531.41
2022-10-25T06:56:27.863Z,99518.91
2022-10-25T06:58:55.289Z,99516.72
2022-10-25T07:01:23.385Z,99519.22
2022-10-25T07:03:51.056Z,99522.34
2022-10-25T07:06:22.051Z,99526.47
2022-10-25T07:08:53.887Z,99531.75
2022-10-25T07:11:21.655Z,99525.97
2022-10-25T07:13:48.422Z,99520.84
2022-10-25T07:16:17.711Z,99519.22
2022-10-25T07:18:44.675Z,99519.00
2022-10-25T07:21:12.850Z,99515.47
2022-10-25T07:23:43.150Z,99514.81
2022-10-25T07:26:09.840Z,99513.41
2022-10-25T07:28:36.576Z,99516.84
2022-10-25T07:31:03.332Z,99510.28
2022-10-25T07:33:31.036Z,99514.06
2022-10-25T07:36:09.932Z,99507.00
2022-10-25T07:38:37.676Z,99503.13
2022-10-25T07:41:04.523Z,99501.50
2022-10-25T07:43:31.277Z,99494.31
2022-10-25T07:45:58.022Z,99483.59
2022-10-25T07:48:24.864Z,99470.75
2022-10-25T07:50:51.721Z,99468.22
2022-10-25T07:53:18.843Z,99468.06
2022-10-25T07:55:52.772Z,99462.78
2022-10-25T07:58:19.606Z,99459.13
2022-10-25T08:00:47.157Z,99462.78
2022-10-25T08:03:15.209Z,99466.56
2022-10-25T08:05:44.997Z,99466.44
2022-10-25T08:08:12.892Z,99469.28
2022-10-25T08:10:42.353Z,99481.38
2022-10-25T08:13:09.091Z,99482.81
2022-10-25T08:15:36.439Z,99477.53
2022-10-25T08:18:04.762Z,99481.44
2022-10-25T08:21:00.104Z,99476.88
2022-10-25T08:23:18.621Z,99476.00
2022-10-25T08:25:45.394Z,99479.22
2022-10-25T08:28:12.102Z,99482.78
2022-10-25T08:30:41.173Z,99482.78
2022-10-25T08:33:11.358Z,99474.66
2022-10-25T08:35:38.844Z,99469.91
2022-10-25T08:38:06.587Z,99466.56
2022-10-25T08:40:44.253Z,99467.41
2022-10-25T08:43:32.942Z,99465.44
2022-10-25T08:46:06.075Z,99461.69
2022-10-25T08:48:41.329Z,99455.72
2022-10-25T08:51:19.755Z,99460.16
2022-10-25T08:53:50.329Z,99460.13
2022-10-25T08:56:18.656Z,99457.66
2022-10-25T08:58:54.921Z,99454.63
2022-10-25T09:01:51.715Z,99455.66
2022-10-25T09:04:18.727Z,99451.66
2022-10-25T09:07:07.110Z,99458.72
2022-10-25T09:09:39.842Z,99450.63
2022-10-25T09:12:15.530Z,99454.09
2022-10-25T09:15:08.215Z,99448.50
2022-10-25T09:17:48.901Z,99452.78
2022-10-25T09:20:26.580Z,99446.91
2022-10-25T09:23:09.821Z,99449.53
2022-10-25T09:25:40.599Z,99456.50
2022-10-25T09:28:27.914Z,99454.25
2022-10-25T09:30:59.719Z,99456.72
2022-10-25T09:33:31.145Z,99461.25
2022-10-25T09:35:59.701Z,99453.91
2022-10-25T09:38:39.011Z,99455.28
2022-10-25T09:41:14.596Z,99454.09
2022-10-25T09:43:49.265Z,99447.06
2022-10-25T09:46:36.230Z,99460.31
2022-10-25T09:49:14.968Z,99450.34
2022-10-25T09:51:50.815Z,99442.31
2022-10-25T09:54:35.133Z,99449.81
2022-10-25T09:57:02.019Z,99444.81
2022-10-25T09:59:29.036Z,99448.84
2022-10-25T13:48:31.723Z,99370.75
2022-10-25T13:51:02.637Z,99370.00
2022-10-25T13:53:41.345Z,99368.84
2022-10-25T13:56:13.514Z,99373.16
2022-10-25T13:58:57.921Z,99379.88
2022-10-25T14:01:25.753Z,99371.72
2022-10-25T14:04:01.495Z,99379.41
2022-10-25T14:06:34.370Z,99375.72
2022-10-25T14:09:01.360Z,99371.94
2022-10-25T14:11:56.213Z,99372.50
2022-10-25T14:14:45.260Z,99370.63
2022-10-25T14:17:15.501Z,99372.22
2022-10-25T14:19:51.916Z,99368.53
2022-10-25T14:22:29.072Z,99371.94
2022-10-25T14:25:02.901Z,99372.03
2022-10-25T14:27:31.097Z,99369.38
2022-10-25T14:30:26.250Z,99360.56
2022-10-25T14:32:55.532Z,99359.88
2022-10-25T14:35:24.174Z,99363.41
2022-10-25T14:37:51.447Z,99363.31
2022-10-25T14:40:28.979Z,99365.69
2022-10-25T14:42:56.599Z,99368.34
2022-10-25T14:45:26.297Z,99354.94
2022-10-25T14:47:53.676Z,99346.91
2022-10-25T14:50:24.991Z,99353.06
2022-10-25T14:52:52.682Z,99351.25
2022-10-25T14:55:32.584Z,99349.47
2022-10-25T14:58:03.105Z,99347.56
2022-10-25T15:00:31.083Z,99349.19
2022-10-25T15:03:04.523Z,99341.03
2022-10-25T15:05:31.545Z,99346.22
2022-10-25T15:08:00.193Z,99350.50
2022-10-25T15:10:43.137Z,99347.00
2022-10-25T15:13:36.416Z,99341.69
2022-10-25T15:16:29.276Z,99329.41
2022-10-25T15:19:19.204Z,99327.59
2022-10-25T15:21:46.075Z,99325.06
2022-10-25T15:24:19.700Z,99325.91
2022-10-25T15:27:04.735Z,99327.59
2022-10-25T15:29:40.787Z,99325.91
2022-10-25T15:32:13.962Z,99330.59
2022-10-25T15:34:43.190Z,99329.69
2022-10-25T15:37:12.714Z,99332.47
2022-10-25T15:39:39.910Z,99322.88
2022-10-25T15:42:08.434Z,99322.97
2022-10-25T15:44:37.189Z,99326.53
2022-10-25T15:47:04.172Z,99324.06
2022-10-25T15:52:03.091Z,99320.56
2022-10-25T15:54:29.876Z,99326.91
2022-10-25T15:56:56.699Z,99325.88
2022-10-25T15:59:23.445Z,99321.31
2022-10-25T16:01:55.233Z,99322.06
2022-10-25T16:04:22.132Z,99319.34
2022-10-25T16:06:48.926Z,99319.25
2022-10-25T16:09:15.658Z,99325.34
2022-10-25T16:11:47.094Z,99330.78
2022-10-25T16:14:26.056Z,99328.84
2022-10-25T16:16:53.157Z,99319.25
2022-10-25T16:19:21.990Z,99327.22
2022-10-25T16:21:48.971Z,99329.06
2022-10-25T16:24:15.710Z,99336.84
2022-10-25T16:26:45.232Z,99331.53
2022-10-25T16:29:24.390Z,99334.00
2022-10-25T16:31:52.228Z,99334.84
2022-10-25T16:34:19.779Z,99339.41
2022-10-25T16:36:47.954Z,99331.44
2022-10-25T16:39:15.184Z,99340.25
2022-10-25T16:41:44.791Z,99336.94
2022-10-25T16:44:12.816Z,99345.25
2022-10-25T16:46:39.976Z,99334.63
2022-10-25T16:49:09.452Z,99339.19
2022-10-25T16:51:37.180Z,99335.19
2022-10-25T16:54:04.574Z,99330.56
2022-10-25T16:56:31.449Z,99330.06
2022-10-25T16:58:58.256Z,99325.03
2022-10-25T17:01:32.615Z,99329.28
2022-10-25T17:04:00.577Z,99331.44
2022-10-25T17:06:43.071Z,99334.78
2022-10-25T17:09:10.811Z,99335.66
2022-10-25T17:11:37.673Z,99339.16
2022-10-25T17:14:04.762Z,99337.72
2022-10-25T17:16:31.946Z,99334.59
2022-10-25T17:18:58.756Z,99338.97
2022-10-25T17:21:25.671Z,99341.38
2022-10-25T17:23:52.478Z,99344.59
2022-10-25T17:26:19.363Z,99348.47
2022-10-25T17:28:46.132Z,99336.91
2022-10-25T17:31:14.860Z,99342.69
2022-10-25T17:33:42.830Z,99339.84
2022-10-25T17:36:12.894Z,99331.72
2022-10-25T17:38:40.297Z,99328.84
2022-10-25T17:41:07.924Z,99340.34
2022-10-25T19:48:25.465Z,99313.28
2022-10-25T19:50:52.813Z,99316.53
2022-10-25T19:53:19.560Z,99315.31
2022-10-25T19:56:00.447Z,99305.16
2022-10-25T19:58:27.834Z,99310.94
2022-10-25T20:01:15.852Z,99315.91
2022-10-25T20:03:43.998Z,99306.81
2022-10-25T20:06:17.567Z,99309.28
2022-10-25T20:08:47.399Z,99315.34
2022-10-25T20:11:17.974Z,99310.69
2022-10-25T20:13:45.214Z,99310.59
2022-10-25T20:16:13.850Z,99306.03
2022-10-25T20:18:41.865Z,99317.44
2022-10-25T20:21:11.516Z,99315.53
2022-10-25T20:23:40.024Z,99315.53
2022-10-25T20:26:15.522Z,99309.38
2022-10-25T20:28:42.718Z,99306.63
2022-10-25T20:31:10.017Z,99319.03
2022-10-25T20:33:37.643Z,99311.06
2022-10-25T20:36:09.139Z,99312.78
2022-10-25T20:38:37.197Z,99317.25
2022-10-25T20:41:10.328Z,99322.47
2022-10-25T20:43:37.682Z,99319.72
2022-10-25T20:46:05.505Z,99322.47
2022-10-25T20:48:32.953Z,99328.44
2022-10-25T20:51:04.102Z,99316.00
2022-10-25T20:53:34.195Z,99323.13
2022-10-25T20:56:01.637Z,99330.56
2022-10-25T20:58:28.611Z,99327.53
2022-10-25T21:00:57.491Z,99334.53
2022-10-25T21:03:26.361Z,99335.28
2022-10-25T21:05:58.000Z,99334.53
2022-10-25T21:08:25.366Z,99335.69
2022-10-25T21:10:57.440Z,99336.63
2022-10-25T21:13:25.498Z,99337.28
2022-10-25T21:15:53.033Z,99339.84
2022-10-25T21:18:19.982Z,99341.47
2022-10-25T21:20:48.679Z,99338.63
2022-10-25T21:23:15.449Z,99332.44
2022-10-25T21:25:42.153Z,99339.47
2022-10-25T21:28:09.397Z,99335.78
2022-10-25T21:30:36.202Z,99334.72
2022-10-25T21:33:05.119Z,99330.38
2022-10-25T21:35:32.881Z,99327.03
2022-10-25T21:37:59.608Z,99328.00
2022-10-25T21:40:26.334Z,99330.66
2022-10-25T21:42:53.215Z,99332.53
2022-10-25T21:45:19.897Z,99324.34
2022-10-25T21:47:46.902Z,99335.00
2022-10-25T21:50:15.229Z,99326.28
2022-10-25T21:52:42.001Z,99333.59
2022-10-25T21:55:09.373Z,99341.47
2022-10-25T21:57:36.427Z,99342.31
2022-10-25T22:00:04.332Z,99340.59
2022-10-25T22:02:39.742Z,99343.16
2022-10-25T22:05:06.957Z,99351.22
2022-10-25T22:07:33.681Z,99340.69
2022-10-25T22:10:00.559Z,99349.91
2022-10-25T22:12:27.306Z,99344.78
2022-10-25T22:14:54.322Z,99342.50
2022-10-25T22:17:21.130Z,99337.19
2022-10-25T22:19:47.871Z,99338.91
2022-10-25T22:22:14.598Z,99341.66
2022-10-25T22:24:41.289Z,99341.28
2022-10-25T22:27:08.003Z,99337.94
2022-10-25T22:29:34.755Z,99340.31
2022-10-25T22:32:01.497Z,99347.34
2022-10-25T22:34:28.695Z,99349.16
2022-10-25T22:36:55.454Z,99355.31
2022-10-25T22:39:22.145Z,99363.41
2022-10-25T22:41:51.365Z,99355.78
2022-10-25T22:44:18.195Z,99361.00
2022-10-25T22:46:44.922Z,99365.50
2022-10-25T22:49:11.636Z,99358.16
2022-10-25T22:51:39.013Z,99361.84
2022-10-25T22:54:05.894Z,99351.81
2022-10-25T22:56:32.682Z,99362.63
2022-10-25T22:59:02.750Z,99354.94
2022-10-25T23:01:31.544Z,99358.63
2022-10-25T23:03:59.552Z,99365.44
2022-10-25T23:06:34.711Z,99370.50
2022-10-25T23:09:04.131Z,99375.91
2022-10-25T23:11:33.215Z,99369.63
2022-10-25T23:14:01.248Z,99383.88
2022-10-25T23:16:29.022Z,99374.75
2022-10-25T23:18:56.522Z,99378.72
2022-10-25T23:21:29.963Z,99383.88
2022-10-25T23:23:58.104Z,99384.03
2022-10-25T23:26:24.821Z,99386.13
2022-10-25T23:28:51.969Z,99386.50
2022-10-25T23:31:18.848Z,99389.81
2022-10-25T23:33:49.684Z,99395.22
2022-10-25T23:36:19.513Z,99394.53
2022-10-25T23:38:47.517Z,99398.63
2022-10-25T23:41:14.401Z,99399.41
2022-10-25T23:43:41.278Z,99409.16
2022-10-25T23:46:08.692Z,99404.91
2022-10-25T23:48:35.791Z,99409.16
2022-10-25T23:51:08.781Z,99410.03
2022-10-25T23:53:36.519Z,99403.75
2022-10-25T23:56:05.721Z,99407.28
2022-10-25T23:58:32.524Z,99405.84
